sensor_id;sensor_type;location;lat;lon;timestamp;temperature;humidity
32187;DHT22;18686;53.084;8.872;2024-03-02T00:01:36;7.40;99.90
32187;DHT22;18686;53.084;8.872;2024-03-02T00:04:05;7.40;99.90
32187;DHT22;18686;53.084;8.872;2024-03-02T00:06:35;7.40;99.90
32187;DHT22;18686;53.084;8.872;2024-03-02T00:09:04;7.50;99.90
32187;DHT22;18686;53.084;8.872;2024-03-02T00:11:35;7.40;99.90
32187;DHT22;18686;53.084;8.872;2024-03-02T00:14:04;7.50;99.90
32187;DHT22;18686;53.084;8.872;2024-03-02T00:16:32;7.40;99.90
32187;DHT22;18686;53.084;8.872;2024-03-02T00:19:02;7.40;99.90
32187;DHT22;18686;53.084;8.872;2024-03-02T00:21:32;7.40;99.90
32187;DHT22;18686;53.084;8.872;2024-03-02T00:24:02;7.40;99.90
32187;DHT22;18686;53.084;8.872;2024-03-02T00:26:35;7.40;99.90
32187;DHT22;18686;53.084;8.872;2024-03-02T00:29:03;7.40;99.90
32187;DHT22;18686;53.084;8.872;2024-03-02T00:31:33;7.40;99.90
32187;DHT22;18686;53.084;8.872;2024-03-02T00:34:04;7.40;99.90
32187;DHT22;18686;53.084;8.872;2024-03-02T00:36:35;7.40;99.90
32187;DHT22;18686;53.084;8.872;2024-03-02T00:39:03;7.30;99.90
32187;DHT22;18686;53.084;8.872;2024-03-02T00:41:35;7.30;99.90
32187;DHT22;18686;53.084;8.872;2024-03-02T00:44:03;7.30;99.90
32187;DHT22;18686;53.084;8.872;2024-03-02T00:46:34;7.30;99.90
32187;DHT22;18686;53.084;8.872;2024-03-02T00:49:03;7.20;99.90
32187;DHT22;18686;53.084;8.872;2024-03-02T00:51:33;7.20;99.90
32187;DHT22;18686;53.084;8.872;2024-03-02T00:54:07;7.20;99.90
32187;DHT22;18686;53.084;8.872;2024-03-02T00:56:35;7.10;99.90
32187;DHT22;18686;53.084;8.872;2024-03-02T00:59:03;7.00;99.90
32187;DHT22;18686;53.084;8.872;2024-03-02T01:01:32;7.00;99.90
32187;DHT22;18686;53.084;8.872;2024-03-02T01:04:00;7.00;99.90
32187;DHT22;18686;53.084;8.872;2024-03-02T01:06:28;7.00;99.90
32187;DHT22;18686;53.084;8.872;2024-03-02T01:08:58;6.90;99.90
32187;DHT22;18686;53.084;8.872;2024-03-02T01:11:28;6.90;99.90
32187;DHT22;18686;53.084;8.872;2024-03-02T01:13:57;6.80;99.90
32187;DHT22;18686;53.084;8.872;2024-03-02T01:16:25;6.80;99.90
32187;DHT22;18686;53.084;8.872;2024-03-02T01:18:53;6.80;99.90
32187;DHT22;18686;53.084;8.872;2024-03-02T01:21:22;6.80;99.90
32187;DHT22;18686;53.084;8.872;2024-03-02T01:23:50;6.70;99.90
32187;DHT22;18686;53.084;8.872;2024-03-02T01:26:18;6.70;99.90
32187;DHT22;18686;53.084;8.872;2024-03-02T01:28:48;6.60;99.90
32187;DHT22;18686;53.084;8.872;2024-03-02T01:31:17;6.60;99.90
32187;DHT22;18686;53.084;8.872;2024-03-02T01:33:45;6.60;99.90
32187;DHT22;18686;53.084;8.872;2024-03-02T01:36:13;6.50;99.90
32187;DHT22;18686;53.084;8.872;2024-03-02T01:38:42;6.50;99.90
32187;DHT22;18686;53.084;8.872;2024-03-02T01:41:10;6.50;99.90
32187;DHT22;18686;53.084;8.872;2024-03-02T01:43:38;6.40;99.90
32187;DHT22;18686;53.084;8.872;2024-03-02T01:46:09;6.40;99.90
32187;DHT22;18686;53.084;8.872;2024-03-02T01:48:38;6.40;99.90
32187;DHT22;18686;53.084;8.872;2024-03-02T01:51:06;6.40;99.90
32187;DHT22;18686;53.084;8.872;2024-03-02T01:53:35;6.30;99.90
32187;DHT22;18686;53.084;8.872;2024-03-02T01:56:04;6.30;99.90
32187;DHT22;18686;53.084;8.872;2024-03-02T01:58:32;6.30;99.90
32187;DHT22;18686;53.084;8.872;2024-03-02T02:01:00;6.30;99.90
32187;DHT22;18686;53.084;8.872;2024-03-02T02:03:30;6.30;99.90
32187;DHT22;18686;53.084;8.872;2024-03-02T02:05:58;6.30;99.90
32187;DHT22;18686;53.084;8.872;2024-03-02T02:08:27;6.30;99.90
32187;DHT22;18686;53.084;8.872;2024-03-02T02:10:55;6.30;99.90
32187;DHT22;18686;53.084;8.872;2024-03-02T02:13:23;6.30;99.90
32187;DHT22;18686;53.084;8.872;2024-03-02T02:15:52;6.30;99.90
32187;DHT22;18686;53.084;8.872;2024-03-02T02:18:21;6.30;99.90
32187;DHT22;18686;53.084;8.872;2024-03-02T02:20:51;6.20;99.90
32187;DHT22;18686;53.084;8.872;2024-03-02T02:23:21;6.20;99.90
32187;DHT22;18686;53.084;8.872;2024-03-02T02:25:49;6.20;99.90
32187;DHT22;18686;53.084;8.872;2024-03-02T02:28:17;6.20;99.90
32187;DHT22;18686;53.084;8.872;2024-03-02T02:30:46;6.10;99.90
32187;DHT22;18686;53.084;8.872;2024-03-02T02:33:14;6.10;99.90
32187;DHT22;18686;53.084;8.872;2024-03-02T02:35:43;6.10;99.90
32187;DHT22;18686;53.084;8.872;2024-03-02T02:38:11;6.10;99.90
32187;DHT22;18686;53.084;8.872;2024-03-02T02:40:41;6.10;99.90
32187;DHT22;18686;53.084;8.872;2024-03-02T02:43:09;6.10;99.90
32187;DHT22;18686;53.084;8.872;2024-03-02T02:45:37;6.10;99.90
32187;DHT22;18686;53.084;8.872;2024-03-02T02:48:06;6.00;99.90
32187;DHT22;18686;53.084;8.872;2024-03-02T02:50:34;6.00;99.90
32187;DHT22;18686;53.084;8.872;2024-03-02T02:53:03;6.00;99.90
32187;DHT22;18686;53.084;8.872;2024-03-02T02:55:31;6.00;99.90
32187;DHT22;18686;53.084;8.872;2024-03-02T02:58:01;6.00;99.90
32187;DHT22;18686;53.084;8.872;2024-03-02T03:00:29;6.00;99.90
32187;DHT22;18686;53.084;8.872;2024-03-02T03:02:57;6.00;99.90
32187;DHT22;18686;53.084;8.872;2024-03-02T03:05:25;6.00;99.90
32187;DHT22;18686;53.084;8.872;2024-03-02T03:07:54;6.00;99.90
32187;DHT22;18686;53.084;8.872;2024-03-02T03:10:22;6.00;99.90
32187;DHT22;18686;53.084;8.872;2024-03-02T03:12:52;6.00;99.90
32187;DHT22;18686;53.084;8.872;2024-03-02T03:15:25;6.00;99.90
32187;DHT22;18686;53.084;8.872;2024-03-02T03:17:53;6.00;99.90
32187;DHT22;18686;53.084;8.872;2024-03-02T03:20:22;6.10;99.90
32187;DHT22;18686;53.084;8.872;2024-03-02T03:22:51;6.00;99.90
32187;DHT22;18686;53.084;8.872;2024-03-02T03:25:21;6.00;99.90
32187;DHT22;18686;53.084;8.872;2024-03-02T03:27:49;6.00;99.90
32187;DHT22;18686;53.084;8.872;2024-03-02T03:30:19;6.10;99.90
32187;DHT22;18686;53.084;8.872;2024-03-02T03:32:49;6.00;99.90
32187;DHT22;18686;53.084;8.872;2024-03-02T03:35:18;6.10;99.90
32187;DHT22;18686;53.084;8.872;2024-03-02T03:37:46;6.00;99.90
32187;DHT22;18686;53.084;8.872;2024-03-02T03:40:14;6.00;99.90
32187;DHT22;18686;53.084;8.872;2024-03-02T03:42:43;6.10;99.90
32187;DHT22;18686;53.084;8.872;2024-03-02T03:45:11;6.00;99.90
32187;DHT22;18686;53.084;8.872;2024-03-02T03:47:39;6.10;99.90
32187;DHT22;18686;53.084;8.872;2024-03-02T03:50:09;6.00;99.90
32187;DHT22;18686;53.084;8.872;2024-03-02T03:52:38;6.00;99.90
32187;DHT22;18686;53.084;8.872;2024-03-02T03:55:06;6.10;99.90
32187;DHT22;18686;53.084;8.872;2024-03-02T03:57:35;6.00;99.90
32187;DHT22;18686;53.084;8.872;2024-03-02T04:00:04;6.10;99.90
32187;DHT22;18686;53.084;8.872;2024-03-02T04:02:39;6.10;99.90
32187;DHT22;18686;53.084;8.872;2024-03-02T04:05:09;6.00;99.90
32187;DHT22;18686;53.084;8.872;2024-03-02T04:07:38;6.10;99.90
32187;DHT22;18686;53.084;8.872;2024-03-02T04:10:08;6.10;99.90
32187;DHT22;18686;53.084;8.872;2024-03-02T04:12:37;6.10;99.90
32187;DHT22;18686;53.084;8.872;2024-03-02T04:15:06;6.00;99.90
32187;DHT22;18686;53.084;8.872;2024-03-02T04:18:17;6.00;99.90
32187;DHT22;18686;53.084;8.872;2024-03-02T04:20:47;6.10;99.90
32187;DHT22;18686;53.084;8.872;2024-03-02T04:23:19;6.00;99.90
32187;DHT22;18686;53.084;8.872;2024-03-02T04:25:48;6.10;99.90
32187;DHT22;18686;53.084;8.872;2024-03-02T04:28:17;6.10;99.90
32187;DHT22;18686;53.084;8.872;2024-03-02T04:30:45;6.10;99.90
32187;DHT22;18686;53.084;8.872;2024-03-02T04:33:13;6.10;99.90
32187;DHT22;18686;53.084;8.872;2024-03-02T04:35:42;6.10;99.90
32187;DHT22;18686;53.084;8.872;2024-03-02T04:38:11;6.20;99.90
32187;DHT22;18686;53.084;8.872;2024-03-02T04:40:39;6.20;99.90
32187;DHT22;18686;53.084;8.872;2024-03-02T04:43:09;6.20;99.90
32187;DHT22;18686;53.084;8.872;2024-03-02T04:45:42;6.20;99.90
32187;DHT22;18686;53.084;8.872;2024-03-02T04:48:10;6.20;99.90
32187;DHT22;18686;53.084;8.872;2024-03-02T04:50:39;6.20;99.90
32187;DHT22;18686;53.084;8.872;2024-03-02T04:53:07;6.20;99.90
32187;DHT22;18686;53.084;8.872;2024-03-02T04:55:37;6.20;99.90
32187;DHT22;18686;53.084;8.872;2024-03-02T04:58:37;6.20;99.90
32187;DHT22;18686;53.084;8.872;2024-03-02T05:01:05;6.20;99.90
32187;DHT22;18686;53.084;8.872;2024-03-02T05:03:33;6.20;99.90
32187;DHT22;18686;53.084;8.872;2024-03-02T05:06:02;6.20;99.90
32187;DHT22;18686;53.084;8.872;2024-03-02T05:08:30;6.20;99.90
32187;DHT22;18686;53.084;8.872;2024-03-02T05:11:00;6.10;99.90
32187;DHT22;18686;53.084;8.872;2024-03-02T05:13:48;6.10;99.90
32187;DHT22;18686;53.084;8.872;2024-03-02T05:16:16;6.10;99.90
32187;DHT22;18686;53.084;8.872;2024-03-02T05:18:44;6.10;99.90
32187;DHT22;18686;53.084;8.872;2024-03-02T05:21:12;6.10;99.90
32187;DHT22;18686;53.084;8.872;2024-03-02T05:23:41;6.10;99.90
32187;DHT22;18686;53.084;8.872;2024-03-02T05:26:10;6.10;99.90
32187;DHT22;18686;53.084;8.872;2024-03-02T05:28:39;6.10;99.90
32187;DHT22;18686;53.084;8.872;2024-03-02T05:31:10;6.00;99.90
32187;DHT22;18686;53.084;8.872;2024-03-02T05:33:38;6.00;99.90
32187;DHT22;18686;53.084;8.872;2024-03-02T05:36:07;6.00;99.90
32187;DHT22;18686;53.084;8.872;2024-03-02T05:38:36;6.00;99.90
32187;DHT22;18686;53.084;8.872;2024-03-02T05:41:04;6.00;99.90
32187;DHT22;18686;53.084;8.872;2024-03-02T05:43:34;6.00;99.90
32187;DHT22;18686;53.084;8.872;2024-03-02T05:46:03;5.90;99.90
32187;DHT22;18686;53.084;8.872;2024-03-02T05:48:31;5.90;99.90
32187;DHT22;18686;53.084;8.872;2024-03-02T05:51:00;6.00;99.90
32187;DHT22;18686;53.084;8.872;2024-03-02T05:53:28;5.90;99.90
32187;DHT22;18686;53.084;8.872;2024-03-02T05:55:56;5.90;99.90
32187;DHT22;18686;53.084;8.872;2024-03-02T05:58:27;6.00;99.90
32187;DHT22;18686;53.084;8.872;2024-03-02T06:01:08;6.00;99.90
32187;DHT22;18686;53.084;8.872;2024-03-02T06:03:36;6.00;99.90
32187;DHT22;18686;53.084;8.872;2024-03-02T06:06:05;6.00;99.90
32187;DHT22;18686;53.084;8.872;2024-03-02T06:08:33;6.00;99.90
32187;DHT22;18686;53.084;8.872;2024-03-02T06:11:02;6.00;99.90
32187;DHT22;18686;53.084;8.872;2024-03-02T06:13:30;6.00;99.90
32187;DHT22;18686;53.084;8.872;2024-03-02T06:15:59;6.00;99.90
32187;DHT22;18686;53.084;8.872;2024-03-02T06:18:28;6.00;99.90
32187;DHT22;18686;53.084;8.872;2024-03-02T06:20:57;6.00;99.90
32187;DHT22;18686;53.084;8.872;2024-03-02T06:23:25;6.00;99.90
32187;DHT22;18686;53.084;8.872;2024-03-02T06:25:53;6.10;99.90
32187;DHT22;18686;53.084;8.872;2024-03-02T06:28:22;6.10;99.90
32187;DHT22;18686;53.084;8.872;2024-03-02T06:30:50;6.20;99.90
32187;DHT22;18686;53.084;8.872;2024-03-02T06:33:18;6.20;99.90
32187;DHT22;18686;53.084;8.872;2024-03-02T06:35:48;6.20;99.90
32187;DHT22;18686;53.084;8.872;2024-03-02T06:38:17;6.30;99.90
32187;DHT22;18686;53.084;8.872;2024-03-02T06:40:45;6.30;99.90
32187;DHT22;18686;53.084;8.872;2024-03-02T06:43:13;6.30;99.90
32187;DHT22;18686;53.084;8.872;2024-03-02T06:45:42;6.40;99.90
32187;DHT22;18686;53.084;8.872;2024-03-02T06:48:10;6.40;99.90
32187;DHT22;18686;53.084;8.872;2024-03-02T06:50:38;6.50;99.90
32187;DHT22;18686;53.084;8.872;2024-03-02T06:53:08;6.60;99.90
32187;DHT22;18686;53.084;8.872;2024-03-02T06:55:36;6.60;99.90
32187;DHT22;18686;53.084;8.872;2024-03-02T06:58:04;6.70;99.90
32187;DHT22;18686;53.084;8.872;2024-03-02T07:00:33;6.80;99.90
32187;DHT22;18686;53.084;8.872;2024-03-02T07:03:01;6.80;99.90
32187;DHT22;18686;53.084;8.872;2024-03-02T07:05:29;6.90;99.90
32187;DHT22;18686;53.084;8.872;2024-03-02T07:07:58;7.00;99.90
32187;DHT22;18686;53.084;8.872;2024-03-02T07:10:27;7.10;99.90
32187;DHT22;18686;53.084;8.872;2024-03-02T07:12:56;7.10;99.90
32187;DHT22;18686;53.084;8.872;2024-03-02T07:15:24;7.20;99.90
32187;DHT22;18686;53.084;8.872;2024-03-02T07:18:17;7.30;99.90
32187;DHT22;18686;53.084;8.872;2024-03-02T07:20:45;7.40;99.90
32187;DHT22;18686;53.084;8.872;2024-03-02T07:23:13;7.50;99.90
32187;DHT22;18686;53.084;8.872;2024-03-02T07:25:43;7.70;99.90
32187;DHT22;18686;53.084;8.872;2024-03-02T07:28:14;7.80;99.90
32187;DHT22;18686;53.084;8.872;2024-03-02T07:30:43;8.00;99.90
32187;DHT22;18686;53.084;8.872;2024-03-02T07:33:11;8.00;99.90
32187;DHT22;18686;53.084;8.872;2024-03-02T07:35:39;8.10;99.90
32187;DHT22;18686;53.084;8.872;2024-03-02T07:38:07;8.20;99.90
32187;DHT22;18686;53.084;8.872;2024-03-02T07:40:36;8.30;99.90
32187;DHT22;18686;53.084;8.872;2024-03-02T07:43:05;8.30;99.90
32187;DHT22;18686;53.084;8.872;2024-03-02T07:45:34;8.40;99.90
32187;DHT22;18686;53.084;8.872;2024-03-02T07:48:03;8.50;99.90
32187;DHT22;18686;53.084;8.872;2024-03-02T07:50:32;8.60;99.90
32187;DHT22;18686;53.084;8.872;2024-03-02T07:53:02;8.70;99.90
32187;DHT22;18686;53.084;8.872;2024-03-02T07:55:31;8.80;99.90
32187;DHT22;18686;53.084;8.872;2024-03-02T07:58:00;8.80;99.90
32187;DHT22;18686;53.084;8.872;2024-03-02T08:00:30;8.80;99.90
32187;DHT22;18686;53.084;8.872;2024-03-02T08:02:59;8.80;99.90
32187;DHT22;18686;53.084;8.872;2024-03-02T08:05:27;8.80;99.90
32187;DHT22;18686;53.084;8.872;2024-03-02T08:07:56;8.90;99.90
32187;DHT22;18686;53.084;8.872;2024-03-02T08:10:24;8.80;99.90
32187;DHT22;18686;53.084;8.872;2024-03-02T08:12:52;8.90;99.90
32187;DHT22;18686;53.084;8.872;2024-03-02T08:15:21;8.90;99.90
32187;DHT22;18686;53.084;8.872;2024-03-02T08:17:52;9.00;99.90
32187;DHT22;18686;53.084;8.872;2024-03-02T08:20:20;9.00;99.90
32187;DHT22;18686;53.084;8.872;2024-03-02T08:22:49;9.00;99.90
32187;DHT22;18686;53.084;8.872;2024-03-02T08:25:17;9.00;99.90
32187;DHT22;18686;53.084;8.872;2024-03-02T08:27:46;9.00;99.90
32187;DHT22;18686;53.084;8.872;2024-03-02T08:30:14;9.10;99.90
32187;DHT22;18686;53.084;8.872;2024-03-02T08:32:43;9.10;99.90
32187;DHT22;18686;53.084;8.872;2024-03-02T08:35:13;9.10;99.90
32187;DHT22;18686;53.084;8.872;2024-03-02T08:37:42;9.20;99.90
32187;DHT22;18686;53.084;8.872;2024-03-02T08:40:11;9.20;99.90
32187;DHT22;18686;53.084;8.872;2024-03-02T08:42:44;9.30;99.90
32187;DHT22;18686;53.084;8.872;2024-03-02T08:45:13;9.30;99.90
32187;DHT22;18686;53.084;8.872;2024-03-02T08:47:42;9.40;99.90
32187;DHT22;18686;53.084;8.872;2024-03-02T08:50:13;9.50;99.90
32187;DHT22;18686;53.084;8.872;2024-03-02T08:52:41;9.60;99.90
32187;DHT22;18686;53.084;8.872;2024-03-02T08:55:10;9.80;99.90
32187;DHT22;18686;53.084;8.872;2024-03-02T08:57:39;10.20;99.90
32187;DHT22;18686;53.084;8.872;2024-03-02T09:00:10;10.70;99.90
32187;DHT22;18686;53.084;8.872;2024-03-02T09:02:38;11.10;99.90
32187;DHT22;18686;53.084;8.872;2024-03-02T09:05:07;11.70;99.90
32187;DHT22;18686;53.084;8.872;2024-03-02T09:07:37;12.20;99.90
32187;DHT22;18686;53.084;8.872;2024-03-02T09:10:06;12.80;99.90
32187;DHT22;18686;53.084;8.872;2024-03-02T09:12:35;13.30;99.90
32187;DHT22;18686;53.084;8.872;2024-03-02T09:15:06;13.90;98.00
32187;DHT22;18686;53.084;8.872;2024-03-02T09:17:34;14.40;95.90
32187;DHT22;18686;53.084;8.872;2024-03-02T09:20:03;14.90;94.50
32187;DHT22;18686;53.084;8.872;2024-03-02T09:22:32;15.40;90.40
32187;DHT22;18686;53.084;8.872;2024-03-02T09:25:02;15.60;85.20
32187;DHT22;18686;53.084;8.872;2024-03-02T09:27:31;15.90;81.30
32187;DHT22;18686;53.084;8.872;2024-03-02T09:29:59;16.30;76.10
32187;DHT22;18686;53.084;8.872;2024-03-02T09:32:27;16.60;73.60
32187;DHT22;18686;53.084;8.872;2024-03-02T09:34:56;16.70;70.50
32187;DHT22;18686;53.084;8.872;2024-03-02T09:37:25;16.90;69.90
32187;DHT22;18686;53.084;8.872;2024-03-02T09:39:54;17.20;67.30
32187;DHT22;18686;53.084;8.872;2024-03-02T09:42:24;17.30;66.30
32187;DHT22;18686;53.084;8.872;2024-03-02T09:44:53;17.30;65.10
32187;DHT22;18686;53.084;8.872;2024-03-02T09:47:22;17.20;63.80
32187;DHT22;18686;53.084;8.872;2024-03-02T09:49:50;17.10;64.60
32187;DHT22;18686;53.084;8.872;2024-03-02T09:52:18;16.90;63.80
32187;DHT22;18686;53.084;8.872;2024-03-02T09:54:47;16.80;64.20
32187;DHT22;18686;53.084;8.872;2024-03-02T09:57:16;16.90;64.40
32187;DHT22;18686;53.084;8.872;2024-03-02T09:59:46;16.90;64.40
32187;DHT22;18686;53.084;8.872;2024-03-02T10:02:14;16.80;64.20
32187;DHT22;18686;53.084;8.872;2024-03-02T10:04:43;16.80;65.40
32187;DHT22;18686;53.084;8.872;2024-03-02T10:07:13;16.80;63.70
32187;DHT22;18686;53.084;8.872;2024-03-02T10:09:42;16.90;64.10
32187;DHT22;18686;53.084;8.872;2024-03-02T10:12:14;17.10;63.50
32187;DHT22;18686;53.084;8.872;2024-03-02T10:14:43;17.40;63.70
32187;DHT22;18686;53.084;8.872;2024-03-02T10:17:14;18.00;61.50
32187;DHT22;18686;53.084;8.872;2024-03-02T10:19:42;18.60;59.80
32187;DHT22;18686;53.084;8.872;2024-03-02T10:22:11;18.90;58.50
32187;DHT22;18686;53.084;8.872;2024-03-02T10:24:41;19.70;57.60
32187;DHT22;18686;53.084;8.872;2024-03-02T10:27:16;20.90;55.60
32187;DHT22;18686;53.084;8.872;2024-03-02T10:29:46;21.80;51.90
32187;DHT22;18686;53.084;8.872;2024-03-02T10:32:16;22.60;48.40
32187;DHT22;18686;53.084;8.872;2024-03-02T10:34:45;23.10;48.50
32187;DHT22;18686;53.084;8.872;2024-03-02T10:37:15;23.80;46.30
32187;DHT22;18686;53.084;8.872;2024-03-02T10:39:46;24.30;45.00
32187;DHT22;18686;53.084;8.872;2024-03-02T10:42:15;24.90;43.60
32187;DHT22;18686;53.084;8.872;2024-03-02T10:44:45;25.00;43.00
32187;DHT22;18686;53.084;8.872;2024-03-02T10:47:14;25.50;42.00
32187;DHT22;18686;53.084;8.872;2024-03-02T10:49:47;26.30;41.40
32187;DHT22;18686;53.084;8.872;2024-03-02T10:52:17;27.00;39.80
32187;DHT22;18686;53.084;8.872;2024-03-02T10:54:45;26.90;39.70
32187;DHT22;18686;53.084;8.872;2024-03-02T10:57:14;27.30;39.00
32187;DHT22;18686;53.084;8.872;2024-03-02T10:59:51;27.50;38.20
32187;DHT22;18686;53.084;8.872;2024-03-02T11:02:21;28.10;37.60
32187;DHT22;18686;53.084;8.872;2024-03-02T11:04:54;28.40;38.20
32187;DHT22;18686;53.084;8.872;2024-03-02T11:07:23;29.30;37.00
32187;DHT22;18686;53.084;8.872;2024-03-02T11:09:57;30.00;35.20
32187;DHT22;18686;53.084;8.872;2024-03-02T11:12:29;29.70;35.30
32187;DHT22;18686;53.084;8.872;2024-03-02T11:14:59;29.80;35.30
32187;DHT22;18686;53.084;8.872;2024-03-02T11:17:28;30.30;33.90
32187;DHT22;18686;53.084;8.872;2024-03-02T11:19:59;30.50;33.90
32187;DHT22;18686;53.084;8.872;2024-03-02T11:22:28;30.50;33.20
32187;DHT22;18686;53.084;8.872;2024-03-02T11:24:56;31.00;33.90
32187;DHT22;18686;53.084;8.872;2024-03-02T11:28:01;31.20;33.30
32187;DHT22;18686;53.084;8.872;2024-03-02T11:30:49;31.60;32.80
32187;DHT22;18686;53.084;8.872;2024-03-02T11:33:26;31.90;32.30
32187;DHT22;18686;53.084;8.872;2024-03-02T11:35:58;31.80;31.90
32187;DHT22;18686;53.084;8.872;2024-03-02T11:38:34;32.20;31.90
32187;DHT22;18686;53.084;8.872;2024-03-02T11:41:06;32.70;31.60
32187;DHT22;18686;53.084;8.872;2024-03-02T11:43:37;33.60;31.10
32187;DHT22;18686;53.084;8.872;2024-03-02T11:46:09;34.70;30.30
32187;DHT22;18686;53.084;8.872;2024-03-02T11:48:40;35.60;29.30
32187;DHT22;18686;53.084;8.872;2024-03-02T11:51:11;35.80;28.90
32187;DHT22;18686;53.084;8.872;2024-03-02T11:53:39;35.70;28.60
32187;DHT22;18686;53.084;8.872;2024-03-02T11:56:10;36.00;29.00
32187;DHT22;18686;53.084;8.872;2024-03-02T11:58:40;36.40;28.60
32187;DHT22;18686;53.084;8.872;2024-03-02T12:01:10;37.40;28.50
32187;DHT22;18686;53.084;8.872;2024-03-02T12:03:40;37.90;28.40
32187;DHT22;18686;53.084;8.872;2024-03-02T12:06:11;38.20;27.50
32187;DHT22;18686;53.084;8.872;2024-03-02T12:08:40;37.60;27.40
32187;DHT22;18686;53.084;8.872;2024-03-02T12:11:13;37.10;27.60
32187;DHT22;18686;53.084;8.872;2024-03-02T12:13:52;36.80;27.90
32187;DHT22;18686;53.084;8.872;2024-03-02T12:16:24;37.10;27.00
32187;DHT22;18686;53.084;8.872;2024-03-02T12:18:52;36.60;27.10
32187;DHT22;18686;53.084;8.872;2024-03-02T12:21:22;36.00;28.00
32187;DHT22;18686;53.084;8.872;2024-03-02T12:23:50;36.20;28.00
32187;DHT22;18686;53.084;8.872;2024-03-02T12:26:19;36.30;27.40
32187;DHT22;18686;53.084;8.872;2024-03-02T12:28:48;35.80;27.70
32187;DHT22;18686;53.084;8.872;2024-03-02T12:31:16;35.50;27.60
32187;DHT22;18686;53.084;8.872;2024-03-02T12:33:44;35.50;27.80
32187;DHT22;18686;53.084;8.872;2024-03-02T12:36:13;34.90;28.00
32187;DHT22;18686;53.084;8.872;2024-03-02T12:38:44;35.40;28.10
32187;DHT22;18686;53.084;8.872;2024-03-02T12:41:14;35.70;27.70
32187;DHT22;18686;53.084;8.872;2024-03-02T12:43:43;35.90;27.90
32187;DHT22;18686;53.084;8.872;2024-03-02T12:46:12;35.60;27.50
32187;DHT22;18686;53.084;8.872;2024-03-02T12:48:40;35.60;27.20
32187;DHT22;18686;53.084;8.872;2024-03-02T12:51:09;36.30;27.50
32187;DHT22;18686;53.084;8.872;2024-03-02T12:53:37;36.80;27.30
32187;DHT22;18686;53.084;8.872;2024-03-02T12:56:08;36.60;27.40
32187;DHT22;18686;53.084;8.872;2024-03-02T12:58:39;36.70;27.30
32187;DHT22;18686;53.084;8.872;2024-03-02T13:01:08;36.60;27.40
32187;DHT22;18686;53.084;8.872;2024-03-02T13:03:38;36.90;27.40
32187;DHT22;18686;53.084;8.872;2024-03-02T13:06:07;37.20;27.50
32187;DHT22;18686;53.084;8.872;2024-03-02T13:08:36;37.40;27.10
32187;DHT22;18686;53.084;8.872;2024-03-02T13:11:04;37.60;27.20
32187;DHT22;18686;53.084;8.872;2024-03-02T13:13:35;37.70;26.70
32187;DHT22;18686;53.084;8.872;2024-03-02T13:16:08;36.90;26.70
32187;DHT22;18686;53.084;8.872;2024-03-02T13:18:38;36.00;27.20
32187;DHT22;18686;53.084;8.872;2024-03-02T13:21:06;35.10;27.70
32187;DHT22;18686;53.084;8.872;2024-03-02T13:23:34;34.30;27.70
32187;DHT22;18686;53.084;8.872;2024-03-02T13:26:03;33.90;28.40
32187;DHT22;18686;53.084;8.872;2024-03-02T13:28:31;33.60;28.20
32187;DHT22;18686;53.084;8.872;2024-03-02T13:31:01;33.00;28.40
32187;DHT22;18686;53.084;8.872;2024-03-02T13:33:30;31.80;28.90
32187;DHT22;18686;53.084;8.872;2024-03-02T13:36:00;30.90;29.40
32187;DHT22;18686;53.084;8.872;2024-03-02T13:38:29;29.80;30.00
32187;DHT22;18686;53.084;8.872;2024-03-02T13:40:58;29.10;30.80
32187;DHT22;18686;53.084;8.872;2024-03-02T13:43:27;28.90;31.20
32187;DHT22;18686;53.084;8.872;2024-03-02T13:45:59;28.50;31.50
32187;DHT22;18686;53.084;8.872;2024-03-02T13:48:29;28.80;31.30
32187;DHT22;18686;53.084;8.872;2024-03-02T13:50:57;29.00;31.10
32187;DHT22;18686;53.084;8.872;2024-03-02T13:53:26;29.80;30.70
32187;DHT22;18686;53.084;8.872;2024-03-02T13:55:54;30.80;29.90
32187;DHT22;18686;53.084;8.872;2024-03-02T13:58:23;30.30;29.80
32187;DHT22;18686;53.084;8.872;2024-03-02T14:00:51;30.10;30.00
32187;DHT22;18686;53.084;8.872;2024-03-02T14:03:19;29.90;30.20
32187;DHT22;18686;53.084;8.872;2024-03-02T14:05:51;30.40;30.00
32187;DHT22;18686;53.084;8.872;2024-03-02T14:08:20;30.50;30.00
32187;DHT22;18686;53.084;8.872;2024-03-02T14:10:48;30.90;30.00
32187;DHT22;18686;53.084;8.872;2024-03-02T14:13:17;31.50;29.60
32187;DHT22;18686;53.084;8.872;2024-03-02T14:15:45;32.00;29.30
32187;DHT22;18686;53.084;8.872;2024-03-02T14:18:13;32.20;28.80
32187;DHT22;18686;53.084;8.872;2024-03-02T14:20:42;31.70;29.10
32187;DHT22;18686;53.084;8.872;2024-03-02T14:23:14;30.60;29.40
32187;DHT22;18686;53.084;8.872;2024-03-02T14:25:42;29.80;30.00
32187;DHT22;18686;53.084;8.872;2024-03-02T14:28:10;28.70;30.70
32187;DHT22;18686;53.084;8.872;2024-03-02T14:30:59;27.60;31.90
32187;DHT22;18686;53.084;8.872;2024-03-02T14:33:28;25.90;33.60
32187;DHT22;18686;53.084;8.872;2024-03-02T14:35:57;24.50;35.40
32187;DHT22;18686;53.084;8.872;2024-03-02T14:38:28;23.00;37.70
32187;DHT22;18686;53.084;8.872;2024-03-02T14:40:57;21.60;39.70
32187;DHT22;18686;53.084;8.872;2024-03-02T14:43:25;20.40;41.80
32187;DHT22;18686;53.084;8.872;2024-03-02T14:45:53;19.40;43.70
32187;DHT22;18686;53.084;8.872;2024-03-02T14:48:22;18.80;45.10
32187;DHT22;18686;53.084;8.872;2024-03-02T14:50:50;18.40;46.10
32187;DHT22;18686;53.084;8.872;2024-03-02T14:53:19;18.20;46.90
32187;DHT22;18686;53.084;8.872;2024-03-02T14:55:48;17.90;47.20
32187;DHT22;18686;53.084;8.872;2024-03-02T14:58:17;17.80;48.20
32187;DHT22;18686;53.084;8.872;2024-03-02T15:00:46;17.70;48.70
32187;DHT22;18686;53.084;8.872;2024-03-02T15:03:14;17.60;49.00
32187;DHT22;18686;53.084;8.872;2024-03-02T15:05:42;17.80;49.10
32187;DHT22;18686;53.084;8.872;2024-03-02T15:08:12;18.00;49.20
32187;DHT22;18686;53.084;8.872;2024-03-02T15:10:40;18.10;49.20
32187;DHT22;18686;53.084;8.872;2024-03-02T15:13:13;18.20;48.50
32187;DHT22;18686;53.084;8.872;2024-03-02T15:15:41;18.40;48.40
32187;DHT22;18686;53.084;8.872;2024-03-02T15:18:10;18.80;47.80
32187;DHT22;18686;53.084;8.872;2024-03-02T15:20:38;19.30;47.10
32187;DHT22;18686;53.084;8.872;2024-03-02T15:23:07;19.70;46.40
32187;DHT22;18686;53.084;8.872;2024-03-02T15:25:36;19.90;46.10
32187;DHT22;18686;53.084;8.872;2024-03-02T15:28:05;20.10;45.80
32187;DHT22;18686;53.084;8.872;2024-03-02T15:30:35;20.00;45.60
32187;DHT22;18686;53.084;8.872;2024-03-02T15:33:03;19.90;45.90
32187;DHT22;18686;53.084;8.872;2024-03-02T15:35:32;19.70;46.40
32187;DHT22;18686;53.084;8.872;2024-03-02T15:38:02;19.60;46.70
32187;DHT22;18686;53.084;8.872;2024-03-02T15:40:37;19.50;47.10
32187;DHT22;18686;53.084;8.872;2024-03-02T15:43:06;18.90;47.90
32187;DHT22;18686;53.084;8.872;2024-03-02T15:45:36;18.40;48.90
32187;DHT22;18686;53.084;8.872;2024-03-02T15:48:05;17.90;50.20
32187;DHT22;18686;53.084;8.872;2024-03-02T15:50:33;17.40;51.30
32187;DHT22;18686;53.084;8.872;2024-03-02T15:53:03;16.90;52.50
32187;DHT22;18686;53.084;8.872;2024-03-02T15:55:33;16.50;53.50